Association Sportive et Culturelle de l' Aéroport de Blagnac

Section Vol Moteur

Bienvenue sur le site ASCAB Vol Moteur

LFBO TOULOUSE-BLAGNAC

METAR :
2024/06/21 13:30 LFBO 211330Z AUTO 26014KT 9999 FEW033/// SCT060/// BKN080/// ///CB 23/14 Q1021 TEMPO 29015G25KT

TAF :
2024/06/21 12:51 TAF LFBO 211100Z 2112/2218 28008KT 9999 SCT020 BKN050 PROB30 TEMPO 2112/2116 29015G25KT -SHRA SCT040CB BECMG 2118/2120 CAVOK BECMG 2201/2203 VRB03KT PROB30 TEMPO 2203/2207 4000 BR BKN005 BECMG 2208/2210 28008KT BKN035 PROB40 TEMPO 2210/2218 -RA BKN015